createdAt,value
2023-04-04T00:00:22.126Z,100.00
2023-04-04T00:02:49.300Z,100.00
2023-04-04T00:05:16.109Z,100.00
2023-04-04T00:07:45.562Z,100.00
2023-04-04T00:10:12.215Z,100.00
2023-04-04T00:12:39.191Z,100.00
2023-04-04T00:15:06.555Z,100.00
2023-04-04T00:17:33.178Z,100.00
2023-04-04T00:19:59.841Z,100.00
2023-04-04T00:22:26.411Z,100.00
2023-04-04T00:24:52.940Z,100.00
2023-04-04T00:27:19.666Z,100.00
2023-04-04T00:29:46.792Z,100.00
2023-04-04T00:32:13.442Z,100.00
2023-04-04T00:34:40.181Z,100.00
2023-04-04T00:37:07.445Z,100.00
2023-04-04T00:39:34.351Z,100.00
2023-04-04T00:42:01.491Z,100.00
2023-04-04T00:44:28.318Z,100.00
2023-04-04T00:46:55.051Z,100.00
2023-04-04T00:49:21.716Z,100.00
2023-04-04T00:51:48.308Z,100.00
2023-04-04T00:54:15.049Z,100.00
2023-04-04T00:56:41.852Z,100.00
2023-04-04T00:59:08.615Z,100.00
2023-04-04T01:01:36.925Z,100.00
2023-04-04T01:04:04.586Z,100.00
2023-04-04T01:06:32.719Z,100.00
2023-04-04T01:09:00.023Z,100.00
2023-04-04T01:11:28.114Z,100.00
2023-04-04T01:13:55.863Z,100.00
2023-04-04T01:16:24.107Z,100.00
2023-04-04T01:18:53.466Z,100.00
2023-04-04T01:21:21.850Z,100.00
2023-04-04T01:24:04.395Z,100.00
2023-04-04T01:26:38.358Z,100.00
2023-04-04T01:29:05.057Z,100.00
2023-04-04T01:31:37.833Z,100.00
2023-04-04T01:34:23.341Z,100.00
2023-04-04T01:37:05.757Z,100.00
2023-04-04T01:40:14.911Z,100.00
2023-04-04T01:42:44.291Z,100.00
2023-04-04T01:45:11.115Z,100.00
2023-04-04T01:47:42.146Z,100.00
2023-04-04T01:50:14.115Z,100.00
2023-04-04T01:52:40.753Z,100.00
2023-04-04T01:55:08.567Z,100.00
2023-04-04T01:57:35.516Z,100.00
2023-04-04T02:00:03.473Z,100.00
2023-04-04T02:02:30.306Z,100.00
2023-04-04T02:04:57.007Z,100.00
2023-04-04T02:07:24.275Z,100.00
2023-04-04T02:09:51.613Z,100.00
2023-04-04T02:12:18.234Z,100.00
2023-04-04T02:14:45.218Z,100.00
2023-04-04T02:17:12.173Z,100.00
2023-04-04T02:19:39.203Z,100.00
2023-04-04T02:22:05.977Z,100.00
2023-04-04T02:24:32.501Z,100.00
2023-04-04T02:26:59.156Z,100.00
2023-04-04T02:29:26.560Z,100.00
2023-04-04T02:31:53.206Z,100.00
2023-04-04T02:34:21.149Z,100.00
2023-04-04T02:36:49.811Z,100.00
2023-04-04T02:39:17.044Z,100.00
2023-04-04T02:41:43.702Z,100.00
2023-04-04T02:44:10.591Z,100.00
2023-04-04T02:46:38.755Z,100.00
2023-04-04T02:49:08.198Z,100.00
2023-04-04T02:51:35.280Z,100.00
2023-04-04T02:54:03.019Z,100.00
2023-04-04T02:56:37.730Z,100.00
2023-04-04T02:59:04.694Z,100.00
2023-04-04T03:01:31.439Z,100.00
2023-04-04T03:04:03.083Z,100.00
2023-04-04T03:06:34.400Z,100.00
2023-04-04T03:09:01.088Z,100.00
2023-04-04T03:11:28.185Z,100.00
2023-04-04T03:13:55.951Z,100.00
2023-04-04T03:16:31.606Z,100.00
2023-04-04T03:18:58.521Z,100.00
2023-04-04T03:21:25.872Z,100.00
2023-04-04T03:23:55.300Z,100.00
2023-04-04T03:26:21.952Z,100.00
2023-04-04T03:28:48.539Z,100.00
2023-04-04T03:31:15.181Z,100.00
2023-04-04T03:33:42.993Z,100.00
2023-04-04T03:36:12.369Z,100.00
2023-04-04T03:38:39.240Z,100.00
2023-04-04T03:41:06.789Z,100.00
2023-04-04T03:43:33.852Z,100.00
2023-04-04T03:46:05.183Z,100.00
2023-04-04T03:48:31.899Z,100.00
2023-04-04T03:50:59.373Z,100.00
2023-04-04T03:53:26.761Z,100.00
2023-04-04T03:55:56.012Z,100.00
2023-04-04T03:58:23.365Z,100.00
2023-04-04T04:00:51.198Z,100.00
2023-04-04T04:03:17.978Z,100.00
2023-04-04T04:05:46.131Z,100.00
2023-04-04T04:08:13.029Z,100.00
2023-04-04T04:10:39.957Z,100.00
2023-04-04T04:13:06.718Z,100.00
2023-04-04T04:15:33.991Z,100.00
2023-04-04T04:18:04.451Z,100.00
2023-04-04T04:20:31.381Z,100.00
2023-04-04T04:22:57.975Z,100.00
2023-04-04T04:25:24.665Z,100.00
2023-04-04T04:28:10.189Z,100.00
2023-04-04T04:30:36.808Z,100.00
2023-04-04T04:33:03.858Z,100.00
2023-04-04T04:35:39.684Z,100.00
2023-04-04T04:38:08.264Z,100.00
2023-04-04T04:40:35.265Z,100.00
2023-04-04T04:43:07.645Z,100.00
2023-04-04T04:45:34.169Z,100.00
2023-04-04T04:48:07.255Z,100.00
2023-04-04T04:50:43.612Z,100.00
2023-04-04T04:53:12.153Z,100.00
2023-04-04T04:55:38.929Z,100.00
2023-04-04T04:58:10.980Z,100.00
2023-04-04T05:00:40.899Z,100.00
2023-04-04T05:03:07.786Z,100.00
2023-04-04T05:05:39.281Z,100.00
2023-04-04T05:08:12.109Z,100.00
2023-04-04T05:10:47.127Z,100.00
2023-04-04T05:13:14.150Z,100.00
2023-04-04T05:15:46.942Z,100.00
2023-04-04T05:18:14.167Z,100.00
2023-04-04T05:20:42.005Z,100.00
2023-04-04T05:23:11.302Z,100.00
2023-04-04T05:25:41.235Z,100.00
2023-04-04T05:28:08.970Z,100.00
2023-04-04T05:30:39.361Z,100.00
2023-04-04T05:33:19.600Z,100.00
2023-04-04T05:36:00.636Z,100.00
2023-04-04T05:38:29.507Z,100.00
2023-04-04T05:40:56.978Z,100.00
2023-04-04T05:43:24.689Z,100.00
2023-04-04T05:45:58.546Z,100.00
2023-04-04T05:48:26.609Z,100.00
2023-04-04T05:50:53.961Z,100.00
2023-04-04T05:53:31.503Z,100.00
2023-04-04T05:55:59.764Z,100.00
2023-04-04T05:58:30.325Z,100.00
2023-04-04T06:00:58.792Z,100.00
2023-04-04T06:03:31.388Z,100.00
2023-04-04T06:06:01.238Z,100.00
2023-04-04T06:08:27.857Z,100.00
2023-04-04T06:10:55.998Z,100.00
2023-04-04T06:13:23.025Z,100.00
2023-04-04T06:15:54.741Z,100.00
2023-04-04T06:18:21.704Z,100.00
2023-04-04T06:20:48.303Z,100.00
2023-04-04T06:23:16.234Z,100.00
2023-04-04T06:25:45.850Z,100.00
2023-04-04T06:28:15.879Z,100.00
2023-04-04T06:30:44.627Z,100.00
2023-04-04T06:33:12.764Z,100.00
2023-04-04T06:35:44.541Z,100.00
2023-04-04T06:38:12.006Z,100.00
2023-04-04T06:40:38.999Z,100.00
2023-04-04T06:43:06.101Z,100.00
2023-04-04T06:45:38.903Z,100.00
2023-04-04T06:48:05.730Z,100.00
2023-04-04T06:50:33.641Z,100.00
2023-04-04T06:53:02.104Z,100.00
2023-04-04T06:55:29.747Z,100.00
2023-04-04T06:57:56.575Z,92.69
2023-04-04T07:00:23.404Z,83.43
2023-04-04T07:02:50.597Z,80.37
2023-04-04T07:05:18.112Z,77.44
2023-04-04T07:07:46.290Z,74.29
2023-04-04T07:10:12.876Z,72.67
2023-04-04T07:12:39.452Z,71.16
2023-04-04T07:15:06.749Z,68.62
2023-04-04T07:17:36.772Z,67.46
2023-04-04T07:20:04.861Z,64.06
2023-04-04T07:22:31.571Z,61.05
2023-04-04T07:24:58.336Z,60.08
2023-04-04T07:27:25.030Z,56.44
2023-04-04T07:29:52.128Z,58.48
2023-04-04T07:32:18.686Z,55.81
2023-04-04T07:34:45.630Z,55.89
2023-04-04T07:37:12.306Z,56.62
2023-04-04T07:39:38.946Z,54.83
2023-04-04T07:42:06.603Z,54.20
2023-04-04T07:44:33.301Z,54.36
2023-04-04T07:47:09.324Z,53.17
2023-04-04T07:49:37.109Z,51.83
2023-04-04T07:52:04.562Z,50.68
2023-04-04T07:54:31.271Z,49.43
2023-04-04T07:56:57.897Z,48.45
2023-04-04T07:59:24.595Z,47.91
2023-04-04T08:01:51.334Z,46.78
2023-04-04T08:04:18.054Z,46.59
2023-04-04T08:06:44.988Z,45.54
2023-04-04T08:09:11.842Z,46.50
2023-04-04T08:11:38.400Z,45.86
2023-04-04T08:14:05.896Z,45.23
2023-04-04T08:16:32.702Z,44.67
2023-04-04T08:19:00.552Z,42.62
2023-04-04T08:21:27.506Z,43.72
2023-04-04T08:23:54.532Z,42.65
2023-04-04T08:26:24.426Z,41.78
2023-04-04T08:28:51.408Z,40.83
2023-04-04T08:31:18.949Z,40.85
2023-04-04T08:33:47.578Z,39.40
2023-04-04T08:36:16.085Z,37.40
2023-04-04T08:38:42.692Z,38.95
2023-04-04T08:41:09.697Z,40.48
2023-04-04T08:43:39.045Z,35.94
2023-04-04T08:46:05.982Z,36.99
2023-04-04T08:48:34.027Z,36.41
2023-04-04T08:51:03.381Z,36.18
2023-04-04T08:53:32.153Z,36.19
2023-04-04T08:56:00.285Z,35.06
2023-04-04T08:58:27.601Z,36.15
2023-04-04T09:00:55.157Z,34.71
2023-04-04T09:03:27.397Z,35.45
2023-04-04T09:05:55.562Z,34.33
2023-04-04T09:08:26.087Z,36.88
2023-04-04T09:10:53.031Z,35.23
2023-04-04T09:13:19.884Z,35.47
2023-04-04T09:15:49.339Z,36.15
2023-04-04T09:18:17.074Z,34.79
2023-04-04T09:20:45.501Z,36.72
2023-04-04T09:23:15.823Z,34.83
2023-04-04T09:26:03.770Z,34.72
2023-04-04T09:28:32.157Z,35.59
2023-04-04T09:31:02.176Z,34.45
2023-04-04T09:33:28.984Z,35.05
2023-04-04T09:35:59.001Z,34.07
2023-04-04T09:38:28.335Z,33.98
2023-04-04T09:40:55.929Z,34.04
2023-04-04T09:43:26.054Z,33.90
2023-04-04T09:45:54.879Z,32.04
2023-04-04T09:48:32.215Z,31.51
2023-04-04T09:50:59.536Z,32.46
2023-04-04T09:53:26.689Z,31.44
2023-04-04T09:55:55.431Z,31.87
2023-04-04T09:58:31.937Z,31.06
2023-04-04T10:01:01.361Z,31.82
2023-04-04T10:03:29.180Z,30.62
2023-04-04T10:06:06.788Z,31.22
2023-04-04T10:08:37.357Z,30.17
2023-04-04T10:11:12.060Z,31.24
2023-04-04T10:13:42.032Z,29.94
2023-04-04T10:16:09.118Z,31.05
2023-04-04T10:18:36.966Z,30.90
2023-04-04T10:21:15.275Z,30.42
2023-04-04T10:23:45.335Z,30.95
2023-04-04T10:26:13.134Z,30.52
2023-04-04T10:28:40.301Z,30.78
2023-04-04T10:31:19.815Z,30.86
2023-04-04T10:33:59.453Z,29.19
2023-04-04T10:36:31.486Z,29.16
2023-04-04T10:39:08.512Z,31.17
2023-04-04T10:41:36.141Z,29.17
2023-04-04T10:44:12.839Z,30.22
2023-04-04T10:46:43.129Z,29.64
2023-04-04T10:49:10.244Z,28.64
2023-04-04T10:51:45.219Z,29.38
2023-04-04T10:54:20.430Z,28.52
2023-04-04T10:56:47.195Z,28.29
2023-04-04T10:59:15.881Z,28.90
2023-04-04T11:01:59.619Z,27.97
2023-04-04T11:04:33.503Z,28.13
2023-04-04T11:07:06.368Z,29.58
2023-04-04T11:09:54.749Z,27.90
2023-04-04T11:12:34.021Z,28.61
2023-04-04T11:15:00.541Z,26.95
2023-04-04T11:17:49.176Z,27.91
2023-04-04T11:20:17.920Z,26.72
2023-04-04T11:22:45.558Z,26.75
2023-04-04T11:25:24.822Z,26.16
2023-04-04T11:27:56.392Z,27.16
2023-04-04T11:30:23.755Z,26.84
2023-04-04T11:33:03.826Z,26.53
2023-04-04T11:35:33.060Z,24.92
2023-04-04T11:38:03.645Z,25.59
2023-04-04T11:40:35.904Z,24.00
2023-04-04T11:43:07.762Z,24.92
2023-04-04T11:45:35.847Z,25.11
2023-04-04T11:48:04.968Z,24.84
2023-04-04T11:50:42.188Z,24.33
2023-04-04T11:53:13.023Z,24.61
2023-04-04T11:55:42.704Z,25.28
2023-04-04T11:58:13.257Z,24.78
2023-04-04T12:00:41.488Z,23.69
2023-04-04T12:03:12.584Z,24.48
2023-04-04T12:05:42.230Z,25.20
2023-04-04T12:08:11.305Z,24.37
2023-04-04T12:10:40.312Z,24.28
2023-04-04T12:13:09.104Z,24.73
2023-04-04T12:15:37.093Z,24.57
2023-04-04T12:18:08.196Z,23.65
2023-04-04T12:20:38.364Z,24.78
2023-04-04T12:23:05.122Z,23.58
2023-04-04T12:25:34.092Z,23.59
2023-04-04T12:28:04.274Z,23.85
2023-04-04T12:30:31.732Z,23.75
2023-04-04T12:32:58.957Z,23.33
2023-04-04T12:35:26.040Z,23.24
2023-04-04T12:37:58.683Z,22.25
2023-04-04T12:40:29.353Z,22.08
2023-04-04T12:42:56.093Z,23.48
2023-04-04T12:45:23.093Z,23.27
2023-04-04T12:47:54.617Z,23.36
2023-04-04T12:50:27.276Z,24.20
2023-04-04T12:52:55.479Z,23.35
2023-04-04T12:55:31.509Z,23.16
2023-04-04T12:58:01.141Z,23.33
2023-04-04T13:00:28.380Z,23.75
2023-04-04T13:02:55.473Z,23.28
2023-04-04T13:05:25.770Z,23.32
2023-04-04T13:08:06.684Z,24.03
2023-04-04T13:10:57.162Z,24.56
2023-04-04T13:13:38.600Z,24.63
2023-04-04T13:16:36.914Z,25.63
2023-04-04T13:19:04.640Z,24.29
2023-04-04T13:21:31.278Z,25.21
2023-04-04T13:23:57.978Z,24.66
2023-04-04T13:26:24.589Z,25.09
2023-04-04T13:28:51.166Z,25.36
2023-04-04T13:31:18.004Z,25.43
2023-04-04T13:33:44.687Z,25.76
2023-04-04T13:36:11.636Z,26.44
2023-04-04T13:38:38.219Z,26.75
2023-04-04T13:41:05.149Z,26.89
2023-04-04T13:43:31.814Z,27.13
2023-04-04T13:45:58.572Z,26.07
2023-04-04T13:48:25.363Z,26.75
2023-04-04T13:50:53.268Z,25.61
2023-04-04T13:53:20.617Z,25.68
2023-04-04T13:56:12.994Z,26.85
2023-04-04T13:58:33.748Z,26.38
2023-04-04T14:01:06.651Z,27.01
2023-04-04T14:03:33.524Z,26.08
2023-04-04T14:08:47.356Z,26.81
2023-04-04T14:11:15.100Z,26.46
2023-04-04T14:13:41.861Z,26.80
2023-04-04T14:16:09.118Z,27.37
2023-04-04T14:18:36.196Z,26.65
2023-04-04T14:21:03.408Z,25.99
2023-04-04T14:23:30.901Z,27.09
2023-04-04T14:25:58.311Z,26.35
2023-04-04T14:28:24.984Z,25.79
2023-04-04T14:30:51.642Z,25.22
2023-04-04T14:33:18.234Z,25.44
2023-04-04T14:35:45.054Z,25.58
2023-04-04T14:38:11.699Z,25.62
2023-04-04T14:40:38.323Z,25.51
2023-04-04T14:43:04.943Z,25.27
2023-04-04T14:45:32.312Z,25.82
2023-04-04T14:47:58.992Z,25.15
2023-04-04T14:50:25.715Z,25.05
2023-04-04T14:52:52.969Z,25.06
2023-04-04T14:55:20.724Z,25.10
2023-04-04T14:58:01.394Z,25.25
2023-04-04T15:00:29.284Z,24.34
2023-04-04T15:02:56.597Z,24.34
2023-04-04T15:05:25.405Z,24.21
2023-04-04T15:07:52.021Z,23.93
2023-04-04T15:10:18.670Z,24.27
2023-04-04T15:12:45.291Z,23.99
2023-04-04T15:15:13.244Z,23.45
2023-04-04T15:17:40.980Z,23.56
2023-04-04T15:20:08.562Z,23.34
2023-04-04T15:22:38.478Z,23.25
2023-04-04T15:25:06.132Z,23.50
2023-04-04T15:27:32.802Z,23.61
2023-04-04T15:29:59.592Z,24.21
2023-04-04T15:32:26.311Z,23.96
2023-04-04T15:34:53.345Z,23.76
2023-04-04T15:37:19.918Z,24.00
2023-04-04T15:39:53.424Z,23.78
2023-04-04T15:42:21.050Z,23.42
2023-04-04T15:44:47.638Z,23.01
2023-04-04T15:47:16.279Z,23.30
2023-04-04T15:49:42.910Z,23.12
2023-04-04T15:52:09.422Z,22.51
2023-04-04T15:54:35.972Z,21.66
2023-04-04T15:57:02.632Z,22.52
2023-04-04T15:59:31.817Z,22.88
2023-04-04T16:01:58.933Z,23.04
2023-04-04T16:04:25.914Z,24.10
2023-04-04T16:06:52.507Z,25.16
2023-04-04T16:09:20.137Z,25.85
2023-04-04T16:11:46.974Z,26.87
2023-04-04T16:14:13.972Z,27.76
2023-04-04T16:16:41.261Z,27.99
2023-04-04T16:19:08.148Z,28.43
2023-04-04T16:21:35.074Z,28.46
2023-04-04T16:24:03.511Z,28.52
2023-04-04T16:26:30.135Z,28.69
2023-04-04T16:28:56.798Z,29.64
2023-04-04T16:31:24.652Z,30.23
2023-04-04T16:33:51.430Z,31.53
2023-04-04T16:36:18.112Z,31.48
2023-04-04T16:38:44.813Z,32.20
2023-04-04T16:41:11.547Z,32.70
2023-04-04T16:43:38.127Z,34.01
2023-04-04T16:46:05.846Z,33.81
2023-04-04T16:48:32.493Z,34.64
2023-04-04T16:50:59.144Z,34.64
2023-04-04T16:53:25.881Z,35.13
2023-04-04T16:55:52.432Z,35.67
2023-04-04T16:58:19.527Z,36.28
2023-04-04T17:00:46.401Z,36.41
2023-04-04T17:03:13.036Z,36.62
2023-04-04T17:05:39.676Z,37.10
2023-04-04T17:08:06.348Z,38.01
2023-04-04T17:10:33.672Z,37.86
2023-04-04T17:13:00.571Z,37.75
2023-04-04T17:15:28.305Z,38.40
2023-04-04T17:17:54.962Z,38.21
2023-04-04T17:20:21.872Z,39.25
2023-04-04T17:22:51.395Z,39.37
2023-04-04T17:25:18.340Z,39.99
2023-04-04T17:27:44.956Z,39.86
2023-04-04T17:30:12.302Z,40.09
2023-04-04T17:32:38.970Z,40.07
2023-04-04T17:35:06.843Z,40.36
2023-04-04T17:37:33.444Z,40.05
2023-04-04T17:40:01.122Z,39.62
2023-04-04T17:42:27.665Z,39.49
2023-04-04T17:44:54.470Z,39.59
2023-04-04T17:47:21.156Z,40.39
2023-04-04T17:49:47.736Z,40.94
2023-04-04T17:52:18.950Z,40.66
2023-04-04T17:54:48.617Z,40.81
2023-04-04T17:57:15.456Z,41.25
2023-04-04T17:59:42.094Z,41.12
2023-04-04T18:02:08.750Z,41.01
2023-04-04T18:04:35.447Z,41.83
2023-04-04T18:07:02.077Z,41.41
2023-04-04T18:09:29.784Z,42.27
2023-04-04T18:11:56.613Z,42.90
2023-04-04T18:14:23.415Z,43.15
2023-04-04T18:16:50.027Z,43.38
2023-04-04T18:19:16.713Z,43.38
2023-04-04T18:21:46.484Z,43.66
2023-04-04T18:24:14.202Z,43.56
2023-04-04T18:26:40.943Z,44.14
2023-04-04T18:29:07.560Z,44.40
2023-04-04T18:31:34.281Z,45.07
2023-04-04T18:34:01.165Z,45.45
2023-04-04T18:36:27.949Z,45.78
2023-04-04T18:38:54.659Z,45.67
2023-04-04T18:41:21.745Z,46.37
2023-04-04T18:43:48.347Z,46.61
2023-04-04T18:46:15.370Z,46.93
2023-04-04T18:48:42.181Z,47.14
2023-04-04T18:51:08.896Z,47.03
2023-04-04T18:53:35.557Z,48.31
2023-04-04T18:56:02.087Z,48.12
2023-04-04T18:58:28.716Z,47.98
2023-04-04T19:00:55.968Z,48.43
2023-04-04T19:03:23.189Z,48.41
2023-04-04T19:05:50.277Z,49.16
2023-04-04T19:08:18.271Z,49.11
2023-04-04T19:10:47.397Z,49.98
2023-04-04T19:13:15.173Z,50.11
2023-04-04T19:15:43.116Z,50.46
2023-04-04T19:18:10.848Z,51.83
2023-04-04T19:20:37.597Z,52.50
2023-04-04T19:23:04.205Z,52.73
2023-04-04T19:25:30.873Z,53.87
2023-04-04T19:27:58.390Z,55.19
2023-04-04T19:30:40.734Z,56.23
2023-04-04T19:33:18.406Z,58.17
2023-04-04T19:36:11.751Z,60.66
2023-04-04T19:38:40.735Z,64.91
2023-04-04T19:41:20.422Z,67.38
2023-04-04T19:43:47.935Z,69.45
2023-04-04T19:46:16.625Z,69.20
2023-04-04T19:48:44.799Z,71.02
2023-04-04T19:51:17.365Z,71.80
2023-04-04T19:53:45.840Z,73.35
2023-04-04T19:56:14.544Z,75.10
2023-04-04T19:58:41.539Z,77.36
2023-04-04T20:01:09.886Z,78.61
2023-04-04T20:03:38.761Z,82.03
2023-04-04T20:06:31.773Z,82.10
2023-04-04T20:08:59.164Z,83.55
2023-04-04T20:11:32.287Z,84.79
2023-04-04T20:14:00.546Z,85.83
2023-04-04T20:16:28.190Z,85.30
2023-04-04T20:18:54.950Z,85.09
2023-04-04T20:21:23.511Z,86.83
2023-04-04T20:23:55.629Z,87.72
2023-04-04T20:26:45.604Z,88.15
2023-04-04T20:29:14.970Z,88.80
2023-04-04T20:31:46.047Z,88.47
2023-04-04T20:34:45.314Z,88.36
2023-04-04T20:37:16.003Z,88.50
2023-04-04T20:39:47.469Z,88.77
2023-04-04T20:42:23.221Z,91.91
2023-04-04T20:44:49.807Z,94.76
2023-04-04T20:47:45.838Z,98.43
2023-04-04T20:50:21.434Z,100.00
2023-04-04T20:53:03.011Z,100.00
2023-04-04T20:55:31.028Z,100.00
2023-04-04T20:58:07.269Z,100.00
2023-04-04T21:00:33.966Z,100.00
2023-04-04T21:03:07.321Z,100.00
2023-04-04T21:05:36.678Z,100.00
2023-04-04T21:08:30.634Z,100.00
2023-04-04T21:10:57.751Z,100.00
2023-04-04T21:13:28.895Z,99.75
2023-04-04T21:16:00.745Z,99.61
2023-04-04T21:18:30.296Z,100.00
2023-04-04T21:20:56.930Z,100.00
2023-04-04T21:23:26.437Z,100.00
2023-04-04T21:26:00.978Z,100.00
2023-04-04T21:28:27.557Z,100.00
2023-04-04T21:30:54.106Z,100.00
2023-04-04T21:33:21.801Z,100.00
2023-04-04T21:35:50.093Z,100.00
2023-04-04T21:38:30.824Z,100.00
2023-04-04T21:41:15.785Z,100.00
2023-04-04T21:43:42.363Z,100.00
2023-04-04T21:46:09.007Z,100.00
2023-04-04T21:48:35.608Z,100.00
2023-04-04T21:51:02.279Z,100.00
2023-04-04T21:53:28.902Z,100.00
2023-04-04T21:55:55.895Z,100.00
2023-04-04T21:58:22.513Z,100.00
2023-04-04T22:00:49.164Z,100.00
2023-04-04T22:03:16.715Z,100.00
2023-04-04T22:05:44.199Z,100.00
2023-04-04T22:08:11.276Z,100.00
2023-04-04T22:10:45.450Z,100.00
2023-04-04T22:13:21.368Z,100.00
2023-04-04T22:15:52.420Z,100.00
2023-04-04T22:18:30.381Z,100.00
2023-04-04T22:20:58.211Z,100.00
2023-04-04T22:23:25.588Z,100.00
2023-04-04T22:25:52.290Z,100.00
2023-04-04T22:28:24.688Z,100.00
2023-04-04T22:30:51.480Z,100.00
2023-04-04T22:33:18.067Z,100.00
2023-04-04T22:35:45.550Z,100.00
2023-04-04T22:38:14.448Z,100.00
2023-04-04T22:40:41.990Z,100.00
2023-04-04T22:43:09.475Z,100.00
2023-04-04T22:45:37.466Z,100.00
2023-04-04T22:48:04.246Z,100.00
2023-04-04T22:50:30.820Z,100.00
2023-04-04T22:52:58.773Z,100.00
2023-04-04T22:55:26.530Z,100.00
2023-04-04T22:57:53.153Z,100.00
2023-04-04T23:00:20.131Z,100.00
2023-04-04T23:02:49.562Z,100.00
2023-04-04T23:05:18.539Z,100.00
2023-04-04T23:07:46.427Z,100.00
2023-04-04T23:10:16.177Z,100.00
2023-04-04T23:12:42.773Z,100.00
2023-04-04T23:15:09.547Z,100.00
2023-04-04T23:17:36.560Z,100.00
2023-04-04T23:20:09.995Z,100.00
2023-04-04T23:22:38.429Z,100.00
2023-04-04T23:25:07.471Z,100.00
2023-04-04T23:27:34.438Z,100.00
2023-04-04T23:30:04.395Z,100.00
2023-04-04T23:32:32.149Z,100.00
2023-04-04T23:34:59.141Z,100.00
2023-04-04T23:37:26.098Z,100.00
2023-04-04T23:39:52.739Z,100.00
2023-04-04T23:42:19.298Z,100.00
2023-04-04T23:44:45.904Z,100.00
2023-04-04T23:47:12.669Z,100.00
2023-04-04T23:49:39.350Z,100.00
2023-04-04T23:52:06.658Z,100.00
2023-04-04T23:54:33.330Z,100.00
2023-04-04T23:56:59.904Z,100.00
2023-04-04T23:59:27.420Z,100.00
